Aviation Digital Data Service (ADDS)

Output produced by METARs form (0858 UTC 23 July 2019)
found at http://www.aviationweather.gov/metar/data/
 
METAR text: VDPP 230830Z VRB03KT 9999 SCT015 FEW017CB 36/23 Q1003 CB E/S/SW
Conditions at: VDPP (PHNOM-PENH/POCHE, KH) observed 0830 UTC 23 July 2019
Temperature: 36.0°C (97°F)
Dewpoint: 23.0°C (73°F) [RH = 47%]
Pressure (altimeter): 29.62 inches Hg (1003.0 mb)
Winds: variable direction winds at 3 MPH (3 knots; 1.5 m/s)
Visibility: 6 or more miles (10+ km)
Ceiling: at least 12,000 feet AGL
Clouds: scattered clouds at 1500 feet AGL
few clouds at 1700 feet AGL
Weather: no significant weather observed at this time

METAR text: VDPP 230800Z 24003KT 9999 SCT015 FEW017CB 36/22 Q1004 CB E/S/SW
Conditions at: VDPP (PHNOM-PENH/POCHE, KH) observed 0800 UTC 23 July 2019
Temperature: 36.0°C (97°F)
Dewpoint: 22.0°C (72°F) [RH = 45%]
Pressure (altimeter): 29.65 inches Hg (1004.0 mb)
Winds: from the WSW (240 degrees) at 3 MPH (3 knots; 1.5 m/s)
Visibility: 6 or more miles (10+ km)
Ceiling: at least 12,000 feet AGL
Clouds: scattered clouds at 1500 feet AGL
few clouds at 1700 feet AGL
Weather: no significant weather observed at this time

METAR text: VDPP 230730Z VRB02KT 9999 SCT015 FEW017CB 36/22 Q1004 CB S/SW
Conditions at: VDPP (PHNOM-PENH/POCHE, KH) observed 0730 UTC 23 July 2019
Temperature: 36.0°C (97°F)
Dewpoint: 22.0°C (72°F) [RH = 45%]
Pressure (altimeter): 29.65 inches Hg (1004.0 mb)
Winds: variable direction winds at 2 MPH (2 knots; 1.0 m/s)
Visibility: 6 or more miles (10+ km)
Ceiling: at least 12,000 feet AGL
Clouds: scattered clouds at 1500 feet AGL
few clouds at 1700 feet AGL
Weather: no significant weather observed at this time

METAR text: VDPP 230700Z VRB03KT 9999 SCT015 FEW017CB 37/22 Q1004 CB SW
Conditions at: VDPP (PHNOM-PENH/POCHE, KH) observed 0700 UTC 23 July 2019
Temperature: 37.0°C (99°F)
Dewpoint: 22.0°C (72°F) [RH = 42%]
Pressure (altimeter): 29.65 inches Hg (1004.0 mb)
Winds: variable direction winds at 3 MPH (3 knots; 1.5 m/s)
Visibility: 6 or more miles (10+ km)
Ceiling: at least 12,000 feet AGL
Clouds: scattered clouds at 1500 feet AGL
few clouds at 1700 feet AGL
Weather: no significant weather observed at this time

METAR text: VDPP 230630Z 33005KT 260V040 9999 SCT015 FEW017CB 36/22 Q1004 CB SW
Conditions at: VDPP (PHNOM-PENH/POCHE, KH) observed 0630 UTC 23 July 2019
Temperature: 36.0°C (97°F)
Dewpoint: 22.0°C (72°F) [RH = 45%]
Pressure (altimeter): 29.65 inches Hg (1004.0 mb)
Winds: from the NNW (330 degrees) at 6 MPH (5 knots; 2.6 m/s)
Visibility: 6 or more miles (10+ km)
Ceiling: at least 12,000 feet AGL
Clouds: scattered clouds at 1500 feet AGL
few clouds at 1700 feet AGL
Weather: no significant weather observed at this time

METAR text: VDPP 230600Z VRB03KT 9999 SCT015 35/21 Q1005
Conditions at: VDPP (PHNOM-PENH/POCHE, KH) observed 0600 UTC 23 July 2019
Temperature: 35.0°C (95°F)
Dewpoint: 21.0°C (70°F) [RH = 44%]
Pressure (altimeter): 29.68 inches Hg (1005.0 mb)
Winds: variable direction winds at 3 MPH (3 knots; 1.5 m/s)
Visibility: 6 or more miles (10+ km)
Ceiling: at least 12,000 feet AGL
Clouds: scattered clouds at 1500 feet AGL
Weather: no significant weather observed at this time

METAR text: VDPP 230530Z 30004KT 9999 SCT015 35/21 Q1006
Conditions at: VDPP (PHNOM-PENH/POCHE, KH) observed 0530 UTC 23 July 2019
Temperature: 35.0°C (95°F)
Dewpoint: 21.0°C (70°F) [RH = 44%]
Pressure (altimeter): 29.70 inches Hg (1006.0 mb)
Winds: from the WNW (300 degrees) at 5 MPH (4 knots; 2.1 m/s)
Visibility: 6 or more miles (10+ km)
Ceiling: at least 12,000 feet AGL
Clouds: scattered clouds at 1500 feet AGL
Weather: no significant weather observed at this time

METAR text: VDPP 230500Z 28005KT 230V320 9999 SCT015 35/21 Q1006
Conditions at: VDPP (PHNOM-PENH/POCHE, KH) observed 0500 UTC 23 July 2019
Temperature: 35.0°C (95°F)
Dewpoint: 21.0°C (70°F) [RH = 44%]
Pressure (altimeter): 29.70 inches Hg (1006.0 mb)
Winds: from the W (280 degrees) at 6 MPH (5 knots; 2.6 m/s)
Visibility: 6 or more miles (10+ km)
Ceiling: at least 12,000 feet AGL
Clouds: scattered clouds at 1500 feet AGL
Weather: no significant weather observed at this time

METAR text: VDPP 230430Z 29008KT 200V330 9999 SCT017 34/23 Q1006
Conditions at: VDPP (PHNOM-PENH/POCHE, KH) observed 0430 UTC 23 July 2019
Temperature: 34.0°C (93°F)
Dewpoint: 23.0°C (73°F) [RH = 53%]
Pressure (altimeter): 29.70 inches Hg (1006.0 mb)
Winds: from the WNW (290 degrees) at 9 MPH (8 knots; 4.1 m/s)
Visibility: 6 or more miles (10+ km)
Ceiling: at least 12,000 feet AGL
Clouds: scattered clouds at 1700 feet AGL
Weather: no significant weather observed at this time

METAR text: VDPP 230400Z 28007KT 220V320 9999 SCT017 34/23 Q1006
Conditions at: VDPP (PHNOM-PENH/POCHE, KH) observed 0400 UTC 23 July 2019
Temperature: 34.0°C (93°F)
Dewpoint: 23.0°C (73°F) [RH = 53%]
Pressure (altimeter): 29.70 inches Hg (1006.0 mb)
Winds: from the W (280 degrees) at 8 MPH (7 knots; 3.6 m/s)
Visibility: 6 or more miles (10+ km)
Ceiling: at least 12,000 feet AGL
Clouds: scattered clouds at 1700 feet AGL
Weather: no significant weather observed at this time

METAR text: VDPP 230330Z 22007KT 190V290 9999 FEW017 34/23 Q1006
Conditions at: VDPP (PHNOM-PENH/POCHE, KH) observed 0330 UTC 23 July 2019
Temperature: 34.0°C (93°F)
Dewpoint: 23.0°C (73°F) [RH = 53%]
Pressure (altimeter): 29.70 inches Hg (1006.0 mb)
Winds: from the SW (220 degrees) at 8 MPH (7 knots; 3.6 m/s)
Visibility: 6 or more miles (10+ km)
Ceiling: at least 12,000 feet AGL
Clouds: few clouds at 1700 feet AGL
Weather: no significant weather observed at this time

METAR text: VDPP 230300Z 24008KT 170V260 9999 FEW017 32/23 Q1007
Conditions at: VDPP (PHNOM-PENH/POCHE, KH) observed 0300 UTC 23 July 2019
Temperature: 32.0°C (90°F)
Dewpoint: 23.0°C (73°F) [RH = 59%]
Pressure (altimeter): 29.73 inches Hg (1007.0 mb)
Winds: from the WSW (240 degrees) at 9 MPH (8 knots; 4.1 m/s)
Visibility: 6 or more miles (10+ km)
Ceiling: at least 12,000 feet AGL
Clouds: few clouds at 1700 feet AGL
Weather: no significant weather observed at this time

METAR text: VDPP 230230Z 19005KT 140V210 9999 FEW017 SCT040 32/25 Q1007
Conditions at: VDPP (PHNOM-PENH/POCHE, KH) observed 0230 UTC 23 July 2019
Temperature: 32.0°C (90°F)
Dewpoint: 25.0°C (77°F) [RH = 67%]
Pressure (altimeter): 29.73 inches Hg (1007.0 mb)
Winds: from the S (190 degrees) at 6 MPH (5 knots; 2.6 m/s)
Visibility: 6 or more miles (10+ km)
Ceiling: at least 12,000 feet AGL
Clouds: few clouds at 1700 feet AGL
scattered clouds at 4000 feet AGL
Weather: no significant weather observed at this time

METAR text: VDPP 230200Z 15008KT 140V220 9999 FEW017 SCT040 31/25 Q1007
Conditions at: VDPP (PHNOM-PENH/POCHE, KH) observed 0200 UTC 23 July 2019
Temperature: 31.0°C (88°F)
Dewpoint: 25.0°C (77°F) [RH = 71%]
Pressure (altimeter): 29.73 inches Hg (1007.0 mb)
Winds: from the SSE (150 degrees) at 9 MPH (8 knots; 4.1 m/s)
Visibility: 6 or more miles (10+ km)
Ceiling: at least 12,000 feet AGL
Clouds: few clouds at 1700 feet AGL
scattered clouds at 4000 feet AGL
Weather: no significant weather observed at this time

METAR text: VDPP 230130Z 17007KT 9999 FEW017 SCT040 30/25 Q1007
Conditions at: VDPP (PHNOM-PENH/POCHE, KH) observed 0130 UTC 23 July 2019
Temperature: 30.0°C (86°F)
Dewpoint: 25.0°C (77°F) [RH = 75%]
Pressure (altimeter): 29.73 inches Hg (1007.0 mb)
Winds: from the S (170 degrees) at 8 MPH (7 knots; 3.6 m/s)
Visibility: 6 or more miles (10+ km)
Ceiling: at least 12,000 feet AGL
Clouds: few clouds at 1700 feet AGL
scattered clouds at 4000 feet AGL
Weather: no significant weather observed at this time

METAR text: VDPP 230100Z 17004KT 120V190 9999 FEW017 SCT040 29/26 Q1007
Conditions at: VDPP (PHNOM-PENH/POCHE, KH) observed 0100 UTC 23 July 2019
Temperature: 29.0°C (84°F)
Dewpoint: 26.0°C (79°F) [RH = 84%]
Pressure (altimeter): 29.73 inches Hg (1007.0 mb)
Winds: from the S (170 degrees) at 5 MPH (4 knots; 2.1 m/s)
Visibility: 6 or more miles (10+ km)
Ceiling: at least 12,000 feet AGL
Clouds: few clouds at 1700 feet AGL
scattered clouds at 4000 feet AGL
Weather: no significant weather observed at this time

METAR text: VDPP 230030Z 14004KT 9999 FEW017 SCT040 28/26 Q1007
Conditions at: VDPP (PHNOM-PENH/POCHE, KH) observed 0030 UTC 23 July 2019
Temperature: 28.0°C (82°F)
Dewpoint: 26.0°C (79°F) [RH = 89%]
Pressure (altimeter): 29.73 inches Hg (1007.0 mb)
Winds: from the SE (140 degrees) at 5 MPH (4 knots; 2.1 m/s)
Visibility: 6 or more miles (10+ km)
Ceiling: at least 12,000 feet AGL
Clouds: few clouds at 1700 feet AGL
scattered clouds at 4000 feet AGL
Weather: no significant weather observed at this time

METAR text: VDPP 230000Z 15005KT 9999 FEW017 SCT040 27/26 Q1007
Conditions at: VDPP (PHNOM-PENH/POCHE, KH) observed 0000 UTC 23 July 2019
Temperature: 27.0°C (81°F)
Dewpoint: 26.0°C (79°F) [RH = 94%]
Pressure (altimeter): 29.73 inches Hg (1007.0 mb)
Winds: from the SSE (150 degrees) at 6 MPH (5 knots; 2.6 m/s)
Visibility: 6 or more miles (10+ km)
Ceiling: at least 12,000 feet AGL
Clouds: few clouds at 1700 feet AGL
scattered clouds at 4000 feet AGL
Weather: no significant weather observed at this time

METAR text: VDPP 222330Z VRB02KT 9999 SCT015 SCT040 27/26 Q1006
Conditions at: VDPP (PHNOM-PENH/POCHE, KH) observed 2330 UTC 22 July 2019
Temperature: 27.0°C (81°F)
Dewpoint: 26.0°C (79°F) [RH = 94%]
Pressure (altimeter): 29.70 inches Hg (1006.0 mb)
Winds: variable direction winds at 2 MPH (2 knots; 1.0 m/s)
Visibility: 6 or more miles (10+ km)
Ceiling: at least 12,000 feet AGL
Clouds: scattered clouds at 1500 feet AGL
scattered clouds at 4000 feet AGL
Weather: no significant weather observed at this time

METAR text: VDPP 222300Z 13002KT 9000 SCT015 SCT040 27/26 Q1006
Conditions at: VDPP (PHNOM-PENH/POCHE, KH) observed 2300 UTC 22 July 2019
Temperature: 27.0°C (81°F)
Dewpoint: 26.0°C (79°F) [RH = 94%]
Pressure (altimeter): 29.70 inches Hg (1006.0 mb)
Winds: from the SE (130 degrees) at 2 MPH (2 knots; 1.0 m/s)
Visibility: 6 miles ( 9 km)
Ceiling: at least 12,000 feet AGL
Clouds: scattered clouds at 1500 feet AGL
scattered clouds at 4000 feet AGL
Weather: no significant weather observed at this time

METAR text: VDPP 222230Z VRB02KT 9000 SCT015 SCT040 27/26 Q1006
Conditions at: VDPP (PHNOM-PENH/POCHE, KH) observed 2230 UTC 22 July 2019
Temperature: 27.0°C (81°F)
Dewpoint: 26.0°C (79°F) [RH = 94%]
Pressure (altimeter): 29.70 inches Hg (1006.0 mb)
Winds: variable direction winds at 2 MPH (2 knots; 1.0 m/s)
Visibility: 6 miles ( 9 km)
Ceiling: at least 12,000 feet AGL
Clouds: scattered clouds at 1500 feet AGL
scattered clouds at 4000 feet AGL
Weather: no significant weather observed at this time

METAR text: VDPP 222200Z VRB02KT 9000 SCT015 SCT040 27/26 Q1006
Conditions at: VDPP (PHNOM-PENH/POCHE, KH) observed 2200 UTC 22 July 2019
Temperature: 27.0°C (81°F)
Dewpoint: 26.0°C (79°F) [RH = 94%]
Pressure (altimeter): 29.70 inches Hg (1006.0 mb)
Winds: variable direction winds at 2 MPH (2 knots; 1.0 m/s)
Visibility: 6 miles ( 9 km)
Ceiling: at least 12,000 feet AGL
Clouds: scattered clouds at 1500 feet AGL
scattered clouds at 4000 feet AGL
Weather: no significant weather observed at this time

METAR text: VDPP 222130Z 14003KT 9000 SCT015 SCT040 27/26 Q1006
Conditions at: VDPP (PHNOM-PENH/POCHE, KH) observed 2130 UTC 22 July 2019
Temperature: 27.0°C (81°F)
Dewpoint: 26.0°C (79°F) [RH = 94%]
Pressure (altimeter): 29.70 inches Hg (1006.0 mb)
Winds: from the SE (140 degrees) at 3 MPH (3 knots; 1.5 m/s)
Visibility: 6 miles ( 9 km)
Ceiling: at least 12,000 feet AGL
Clouds: scattered clouds at 1500 feet AGL
scattered clouds at 4000 feet AGL
Weather: no significant weather observed at this time

METAR text: VDPP 222100Z 15004KT 9000 SCT015 SCT040 27/26 Q1006
Conditions at: VDPP (PHNOM-PENH/POCHE, KH) observed 2100 UTC 22 July 2019
Temperature: 27.0°C (81°F)
Dewpoint: 26.0°C (79°F) [RH = 94%]
Pressure (altimeter): 29.70 inches Hg (1006.0 mb)
Winds: from the SSE (150 degrees) at 5 MPH (4 knots; 2.1 m/s)
Visibility: 6 miles ( 9 km)
Ceiling: at least 12,000 feet AGL
Clouds: scattered clouds at 1500 feet AGL
scattered clouds at 4000 feet AGL
Weather: no significant weather observed at this time

METAR text: VDPP 222030Z 14004KT 9000 SCT015 SCT040 27/25 Q1006
Conditions at: VDPP (PHNOM-PENH/POCHE, KH) observed 2030 UTC 22 July 2019
Temperature: 27.0°C (81°F)
Dewpoint: 25.0°C (77°F) [RH = 89%]
Pressure (altimeter): 29.70 inches Hg (1006.0 mb)
Winds: from the SE (140 degrees) at 5 MPH (4 knots; 2.1 m/s)
Visibility: 6 miles ( 9 km)
Ceiling: at least 12,000 feet AGL
Clouds: scattered clouds at 1500 feet AGL
scattered clouds at 4000 feet AGL
Weather: no significant weather observed at this time

METAR text: VDPP 222000Z VRB02KT 9000 SCT015 SCT040 27/25 Q1006
Conditions at: VDPP (PHNOM-PENH/POCHE, KH) observed 2000 UTC 22 July 2019
Temperature: 27.0°C (81°F)
Dewpoint: 25.0°C (77°F) [RH = 89%]
Pressure (altimeter): 29.70 inches Hg (1006.0 mb)
Winds: variable direction winds at 2 MPH (2 knots; 1.0 m/s)
Visibility: 6 miles ( 9 km)
Ceiling: at least 12,000 feet AGL
Clouds: scattered clouds at 1500 feet AGL
scattered clouds at 4000 feet AGL
Weather: no significant weather observed at this time

METAR text: VDPP 221930Z 15004KT 9000 SCT015 SCT040 28/25 Q1006
Conditions at: VDPP (PHNOM-PENH/POCHE, KH) observed 1930 UTC 22 July 2019
Temperature: 28.0°C (82°F)
Dewpoint: 25.0°C (77°F) [RH = 84%]
Pressure (altimeter): 29.70 inches Hg (1006.0 mb)
Winds: from the SSE (150 degrees) at 5 MPH (4 knots; 2.1 m/s)
Visibility: 6 miles ( 9 km)
Ceiling: at least 12,000 feet AGL
Clouds: scattered clouds at 1500 feet AGL
scattered clouds at 4000 feet AGL
Weather: no significant weather observed at this time

METAR text: VDPP 221900Z 16002KT 9000 SCT015 SCT040 28/25 Q1007
Conditions at: VDPP (PHNOM-PENH/POCHE, KH) observed 1900 UTC 22 July 2019
Temperature: 28.0°C (82°F)
Dewpoint: 25.0°C (77°F) [RH = 84%]
Pressure (altimeter): 29.73 inches Hg (1007.0 mb)
Winds: from the SSE (160 degrees) at 2 MPH (2 knots; 1.0 m/s)
Visibility: 6 miles ( 9 km)
Ceiling: at least 12,000 feet AGL
Clouds: scattered clouds at 1500 feet AGL
scattered clouds at 4000 feet AGL
Weather: no significant weather observed at this time

METAR text: VDPP 221830Z 15002KT 9000 SCT015 SCT040 28/25 Q1007
Conditions at: VDPP (PHNOM-PENH/POCHE, KH) observed 1830 UTC 22 July 2019
Temperature: 28.0°C (82°F)
Dewpoint: 25.0°C (77°F) [RH = 84%]
Pressure (altimeter): 29.73 inches Hg (1007.0 mb)
Winds: from the SSE (150 degrees) at 2 MPH (2 knots; 1.0 m/s)
Visibility: 6 miles ( 9 km)
Ceiling: at least 12,000 feet AGL
Clouds: scattered clouds at 1500 feet AGL
scattered clouds at 4000 feet AGL
Weather: no significant weather observed at this time

METAR text: VDPP 221800Z VRB02KT 9000 SCT015 SCT040 28/25 Q1007
Conditions at: VDPP (PHNOM-PENH/POCHE, KH) observed 1800 UTC 22 July 2019
Temperature: 28.0°C (82°F)
Dewpoint: 25.0°C (77°F) [RH = 84%]
Pressure (altimeter): 29.73 inches Hg (1007.0 mb)
Winds: variable direction winds at 2 MPH (2 knots; 1.0 m/s)
Visibility: 6 miles ( 9 km)
Ceiling: at least 12,000 feet AGL
Clouds: scattered clouds at 1500 feet AGL
scattered clouds at 4000 feet AGL
Weather: no significant weather observed at this time

METAR text: VDPP 221730Z 18003KT 9000 SCT015 SCT040 28/25 Q1007
Conditions at: VDPP (PHNOM-PENH/POCHE, KH) observed 1730 UTC 22 July 2019
Temperature: 28.0°C (82°F)
Dewpoint: 25.0°C (77°F) [RH = 84%]
Pressure (altimeter): 29.73 inches Hg (1007.0 mb)
Winds: from the S (180 degrees) at 3 MPH (3 knots; 1.5 m/s)
Visibility: 6 miles ( 9 km)
Ceiling: at least 12,000 feet AGL
Clouds: scattered clouds at 1500 feet AGL
scattered clouds at 4000 feet AGL
Weather: no significant weather observed at this time

METAR text: VDPP 221700Z 16003KT 9000 SCT015 SCT040 28/25 Q1008
Conditions at: VDPP (PHNOM-PENH/POCHE, KH) observed 1700 UTC 22 July 2019
Temperature: 28.0°C (82°F)
Dewpoint: 25.0°C (77°F) [RH = 84%]
Pressure (altimeter): 29.76 inches Hg (1008.0 mb)
Winds: from the SSE (160 degrees) at 3 MPH (3 knots; 1.5 m/s)
Visibility: 6 miles ( 9 km)
Ceiling: at least 12,000 feet AGL
Clouds: scattered clouds at 1500 feet AGL
scattered clouds at 4000 feet AGL
Weather: no significant weather observed at this time

METAR text: VDPP 221630Z 14004KT 120V180 9000 SCT015 SCT040 28/25 Q1008
Conditions at: VDPP (PHNOM-PENH/POCHE, KH) observed 1630 UTC 22 July 2019
Temperature: 28.0°C (82°F)
Dewpoint: 25.0°C (77°F) [RH = 84%]
Pressure (altimeter): 29.76 inches Hg (1008.0 mb)
Winds: from the SE (140 degrees) at 5 MPH (4 knots; 2.1 m/s)
Visibility: 6 miles ( 9 km)
Ceiling: at least 12,000 feet AGL
Clouds: scattered clouds at 1500 feet AGL
scattered clouds at 4000 feet AGL
Weather: no significant weather observed at this time

METAR text: VDPP 221600Z 14004KT 100V170 9000 SCT015 SCT040 28/25 Q1008
Conditions at: VDPP (PHNOM-PENH/POCHE, KH) observed 1600 UTC 22 July 2019
Temperature: 28.0°C (82°F)
Dewpoint: 25.0°C (77°F) [RH = 84%]
Pressure (altimeter): 29.76 inches Hg (1008.0 mb)
Winds: from the SE (140 degrees) at 5 MPH (4 knots; 2.1 m/s)
Visibility: 6 miles ( 9 km)
Ceiling: at least 12,000 feet AGL
Clouds: scattered clouds at 1500 feet AGL
scattered clouds at 4000 feet AGL
Weather: no significant weather observed at this time

METAR text: VDPP 221530Z 15006KT 9000 SCT015 SCT040 28/24 Q1008
Conditions at: VDPP (PHNOM-PENH/POCHE, KH) observed 1530 UTC 22 July 2019
Temperature: 28.0°C (82°F)
Dewpoint: 24.0°C (75°F) [RH = 79%]
Pressure (altimeter): 29.76 inches Hg (1008.0 mb)
Winds: from the SSE (150 degrees) at 7 MPH (6 knots; 3.1 m/s)
Visibility: 6 miles ( 9 km)
Ceiling: at least 12,000 feet AGL
Clouds: scattered clouds at 1500 feet AGL
scattered clouds at 4000 feet AGL
Weather: no significant weather observed at this time

METAR text: VDPP 221500Z 18002KT 9000 SCT015 SCT040 29/24 Q1008
Conditions at: VDPP (PHNOM-PENH/POCHE, KH) observed 1500 UTC 22 July 2019
Temperature: 29.0°C (84°F)
Dewpoint: 24.0°C (75°F) [RH = 74%]
Pressure (altimeter): 29.76 inches Hg (1008.0 mb)
Winds: from the S (180 degrees) at 2 MPH (2 knots; 1.0 m/s)
Visibility: 6 miles ( 9 km)
Ceiling: at least 12,000 feet AGL
Clouds: scattered clouds at 1500 feet AGL
scattered clouds at 4000 feet AGL
Weather: no significant weather observed at this time

METAR text: VDPP 221430Z VRB01KT 9000 SCT015 SCT040 29/24 Q1007
Conditions at: VDPP (PHNOM-PENH/POCHE, KH) observed 1430 UTC 22 July 2019
Temperature: 29.0°C (84°F)
Dewpoint: 24.0°C (75°F) [RH = 74%]
Pressure (altimeter): 29.73 inches Hg (1007.0 mb)
Winds: variable direction winds at 1 MPH (1 knots; 0.5 m/s)
Visibility: 6 miles ( 9 km)
Ceiling: at least 12,000 feet AGL
Clouds: scattered clouds at 1500 feet AGL
scattered clouds at 4000 feet AGL
Weather: no significant weather observed at this time

METAR text: VDPP 221400Z 00000KT 9000 SCT015 FEW017CB SCT040 29/24 Q1007 CB:E
Conditions at: VDPP (PHNOM-PENH/POCHE, KH) observed 1400 UTC 22 July 2019
Temperature: 29.0°C (84°F)
Dewpoint: 24.0°C (75°F) [RH = 74%]
Pressure (altimeter): 29.73 inches Hg (1007.0 mb)
Winds: calm
Visibility: 6 miles ( 9 km)
Ceiling: at least 12,000 feet AGL
Clouds: scattered clouds at 1500 feet AGL
few clouds at 1700 feet AGL
scattered clouds at 4000 feet AGL
Weather: no significant weather observed at this time

METAR text: VDPP 221330Z 16002KT 9000 TS SCT015 FEW017CB SCT040 29/24 Q1006 CB:E
Conditions at: VDPP (PHNOM-PENH/POCHE, KH) observed 1330 UTC 22 July 2019
Temperature: 29.0°C (84°F)
Dewpoint: 24.0°C (75°F) [RH = 74%]
Pressure (altimeter): 29.70 inches Hg (1006.0 mb)
Winds: from the SSE (160 degrees) at 2 MPH (2 knots; 1.0 m/s)
Visibility: 6 miles ( 9 km)
Ceiling: at least 12,000 feet AGL
Clouds: scattered clouds at 1500 feet AGL
few clouds at 1700 feet AGL
scattered clouds at 4000 feet AGL
Weather: TS  (thunderstorm)

METAR text: VDPP 221300Z VRB02KT 9999 TS SCT015 FEW017CB SCT040 30/24 Q1006 CB:E
Conditions at: VDPP (PHNOM-PENH/POCHE, KH) observed 1300 UTC 22 July 2019
Temperature: 30.0°C (86°F)
Dewpoint: 24.0°C (75°F) [RH = 70%]
Pressure (altimeter): 29.70 inches Hg (1006.0 mb)
Winds: variable direction winds at 2 MPH (2 knots; 1.0 m/s)
Visibility: 6 or more miles (10+ km)
Ceiling: at least 12,000 feet AGL
Clouds: scattered clouds at 1500 feet AGL
few clouds at 1700 feet AGL
scattered clouds at 4000 feet AGL
Weather: TS  (thunderstorm)

METAR text: VDPP 221230Z VRB02KT 9999 TS SCT015 FEW017CB SCT040 30/24 Q1006 CB:E
Conditions at: VDPP (PHNOM-PENH/POCHE, KH) observed 1230 UTC 22 July 2019
Temperature: 30.0°C (86°F)
Dewpoint: 24.0°C (75°F) [RH = 70%]
Pressure (altimeter): 29.70 inches Hg (1006.0 mb)
Winds: variable direction winds at 2 MPH (2 knots; 1.0 m/s)
Visibility: 6 or more miles (10+ km)
Ceiling: at least 12,000 feet AGL
Clouds: scattered clouds at 1500 feet AGL
few clouds at 1700 feet AGL
scattered clouds at 4000 feet AGL
Weather: TS  (thunderstorm)

METAR text: VDPP 221200Z VRB02KT 9999 TS SCT015 FEW017CB SCT040 30/23 Q1005 CB:E
Conditions at: VDPP (PHNOM-PENH/POCHE, KH) observed 1200 UTC 22 July 2019
Temperature: 30.0°C (86°F)
Dewpoint: 23.0°C (73°F) [RH = 66%]
Pressure (altimeter): 29.68 inches Hg (1005.0 mb)
Winds: variable direction winds at 2 MPH (2 knots; 1.0 m/s)
Visibility: 6 or more miles (10+ km)
Ceiling: at least 12,000 feet AGL
Clouds: scattered clouds at 1500 feet AGL
few clouds at 1700 feet AGL
scattered clouds at 4000 feet AGL
Weather: TS  (thunderstorm)

METAR text: VDPP 221130Z VRB03KT 9999 SCT015 FEW017CB SCT040 29/22 Q1005 CB:E
Conditions at: VDPP (PHNOM-PENH/POCHE, KH) observed 1130 UTC 22 July 2019
Temperature: 29.0°C (84°F)
Dewpoint: 22.0°C (72°F) [RH = 66%]
Pressure (altimeter): 29.68 inches Hg (1005.0 mb)
Winds: variable direction winds at 3 MPH (3 knots; 1.5 m/s)
Visibility: 6 or more miles (10+ km)
Ceiling: at least 12,000 feet AGL
Clouds: scattered clouds at 1500 feet AGL
few clouds at 1700 feet AGL
scattered clouds at 4000 feet AGL
Weather: no significant weather observed at this time

METAR text: VDPP 221100Z VRB03KT 9999 SCT015 FEW017CB SCT040 28/22 Q1005 CB:SE
Conditions at: VDPP (PHNOM-PENH/POCHE, KH) observed 1100 UTC 22 July 2019
Temperature: 28.0°C (82°F)
Dewpoint: 22.0°C (72°F) [RH = 70%]
Pressure (altimeter): 29.68 inches Hg (1005.0 mb)
Winds: variable direction winds at 3 MPH (3 knots; 1.5 m/s)
Visibility: 6 or more miles (10+ km)
Ceiling: at least 12,000 feet AGL
Clouds: scattered clouds at 1500 feet AGL
few clouds at 1700 feet AGL
scattered clouds at 4000 feet AGL
Weather: no significant weather observed at this time

METAR text: VDPP 221030Z 34008KT 300V020 9000 -TSRA SCT015 FEW017CB SCT040 27/24 Q1006 CB:NW/SE
Conditions at: VDPP (PHNOM-PENH/POCHE, KH) observed 1030 UTC 22 July 2019
Temperature: 27.0°C (81°F)
Dewpoint: 24.0°C (75°F) [RH = 84%]
Pressure (altimeter): 29.70 inches Hg (1006.0 mb)
Winds: from the NNW (340 degrees) at 9 MPH (8 knots; 4.1 m/s)
Visibility: 6 miles ( 9 km)
Ceiling: at least 12,000 feet AGL
Clouds: scattered clouds at 1500 feet AGL
few clouds at 1700 feet AGL
scattered clouds at 4000 feet AGL
Weather: -TSRA  (light rain associated with thunderstorm(s))

METAR text: VDPP 221000Z 29010KT 250V010 9000 -TSRA SCT015 FEW017CB SCT040 30/23 Q1005 CB:NW/SE
Conditions at: VDPP (PHNOM-PENH/POCHE, KH) observed 1000 UTC 22 July 2019
Temperature: 30.0°C (86°F)
Dewpoint: 23.0°C (73°F) [RH = 66%]
Pressure (altimeter): 29.68 inches Hg (1005.0 mb)
Winds: from the WNW (290 degrees) at 12 MPH (10 knots; 5.1 m/s)
Visibility: 6 miles ( 9 km)
Ceiling: at least 12,000 feet AGL
Clouds: scattered clouds at 1500 feet AGL
few clouds at 1700 feet AGL
scattered clouds at 4000 feet AGL
Weather: -TSRA  (light rain associated with thunderstorm(s))

METAR text: VDPP 220930Z 27011G22KT 220V290 9000 VCTSRA SCT015 FEW017CB SCT040 30/23 Q1005 CB:NW/SE
Conditions at: VDPP (PHNOM-PENH/POCHE, KH) observed 0930 UTC 22 July 2019
Temperature: 30.0°C (86°F)
Dewpoint: 23.0°C (73°F) [RH = 66%]
Pressure (altimeter): 29.68 inches Hg (1005.0 mb)
Winds: from the W (270 degrees) at 13 MPH (11 knots; 5.7 m/s)
gusting to 25 MPH (22 knots; 11.3 m/s)
Visibility: 6 miles ( 9 km)
Ceiling: at least 12,000 feet AGL
Clouds: scattered clouds at 1500 feet AGL
few clouds at 1700 feet AGL
scattered clouds at 4000 feet AGL
Weather: VCTSRA  (unknown weather)

METAR text: VDPP 220900Z VRB03KT 9999 SCT015 FEW017CB SCT040 34/23 Q1004 CB:W/SE
Conditions at: VDPP (PHNOM-PENH/POCHE, KH) observed 0900 UTC 22 July 2019
Temperature: 34.0°C (93°F)
Dewpoint: 23.0°C (73°F) [RH = 53%]
Pressure (altimeter): 29.65 inches Hg (1004.0 mb)
Winds: variable direction winds at 3 MPH (3 knots; 1.5 m/s)
Visibility: 6 or more miles (10+ km)
Ceiling: at least 12,000 feet AGL
Clouds: scattered clouds at 1500 feet AGL
few clouds at 1700 feet AGL
scattered clouds at 4000 feet AGL
Weather: no significant weather observed at this time

METAR text: VDPP 220830Z 28004KT 190V340 9999 SCT015 FEW017CB SCT040 34/22 Q1004 CB:SW
Conditions at: VDPP (PHNOM-PENH/POCHE, KH) observed 0830 UTC 22 July 2019
Temperature: 34.0°C (93°F)
Dewpoint: 22.0°C (72°F) [RH = 50%]
Pressure (altimeter): 29.65 inches Hg (1004.0 mb)
Winds: from the W (280 degrees) at 5 MPH (4 knots; 2.1 m/s)
Visibility: 6 or more miles (10+ km)
Ceiling: at least 12,000 feet AGL
Clouds: scattered clouds at 1500 feet AGL
few clouds at 1700 feet AGL
scattered clouds at 4000 feet AGL
Weather: no significant weather observed at this time

METAR text: VDPP 220800Z 31004KT 230V360 9999 SCT015 FEW017CB SCT040 35/22 Q1005 CB:SW
Conditions at: VDPP (PHNOM-PENH/POCHE, KH) observed 0800 UTC 22 July 2019
Temperature: 35.0°C (95°F)
Dewpoint: 22.0°C (72°F) [RH = 47%]
Pressure (altimeter): 29.68 inches Hg (1005.0 mb)
Winds: from the NW (310 degrees) at 5 MPH (4 knots; 2.1 m/s)
Visibility: 6 or more miles (10+ km)
Ceiling: at least 12,000 feet AGL
Clouds: scattered clouds at 1500 feet AGL
few clouds at 1700 feet AGL
scattered clouds at 4000 feet AGL
Weather: no significant weather observed at this time

METAR text: VDPP 220730Z 36004KT 290V060 9999 SCT015 FEW017CB SCT040 35/22 Q1005 CB:SW
Conditions at: VDPP (PHNOM-PENH/POCHE, KH) observed 0730 UTC 22 July 2019
Temperature: 35.0°C (95°F)
Dewpoint: 22.0°C (72°F) [RH = 47%]
Pressure (altimeter): 29.68 inches Hg (1005.0 mb)
Winds: from the N (360 degrees) at 5 MPH (4 knots; 2.1 m/s)
Visibility: 6 or more miles (10+ km)
Ceiling: at least 12,000 feet AGL
Clouds: scattered clouds at 1500 feet AGL
few clouds at 1700 feet AGL
scattered clouds at 4000 feet AGL
Weather: no significant weather observed at this time

METAR text: VDPP 220700Z VRB03KT 9999 SCT015 FEW017CB SCT040 35/23 Q1005 CB:SW
Conditions at: VDPP (PHNOM-PENH/POCHE, KH) observed 0700 UTC 22 July 2019
Temperature: 35.0°C (95°F)
Dewpoint: 23.0°C (73°F) [RH = 50%]
Pressure (altimeter): 29.68 inches Hg (1005.0 mb)
Winds: variable direction winds at 3 MPH (3 knots; 1.5 m/s)
Visibility: 6 or more miles (10+ km)
Ceiling: at least 12,000 feet AGL
Clouds: scattered clouds at 1500 feet AGL
few clouds at 1700 feet AGL
scattered clouds at 4000 feet AGL
Weather: no significant weather observed at this time

METAR text: VDPP 220630Z VRB04KT 9999 SCT017 SCT040 35/22 Q1006
Conditions at: VDPP (PHNOM-PENH/POCHE, KH) observed 0630 UTC 22 July 2019
Temperature: 35.0°C (95°F)
Dewpoint: 22.0°C (72°F) [RH = 47%]
Pressure (altimeter): 29.70 inches Hg (1006.0 mb)
Winds: variable direction winds at 5 MPH (4 knots; 2.1 m/s)
Visibility: 6 or more miles (10+ km)
Ceiling: at least 12,000 feet AGL
Clouds: scattered clouds at 1700 feet AGL
scattered clouds at 4000 feet AGL
Weather: no significant weather observed at this time

METAR text: VDPP 220600Z VRB03KT 9999 SCT017 SCT040 34/22 Q1006
Conditions at: VDPP (PHNOM-PENH/POCHE, KH) observed 0600 UTC 22 July 2019
Temperature: 34.0°C (93°F)
Dewpoint: 22.0°C (72°F) [RH = 50%]
Pressure (altimeter): 29.70 inches Hg (1006.0 mb)
Winds: variable direction winds at 3 MPH (3 knots; 1.5 m/s)
Visibility: 6 or more miles (10+ km)
Ceiling: at least 12,000 feet AGL
Clouds: scattered clouds at 1700 feet AGL
scattered clouds at 4000 feet AGL
Weather: no significant weather observed at this time

METAR text: VDPP 220530Z 26004KT 190V310 9999 SCT017 SCT040 34/22 Q1007
Conditions at: VDPP (PHNOM-PENH/POCHE, KH) observed 0530 UTC 22 July 2019
Temperature: 34.0°C (93°F)
Dewpoint: 22.0°C (72°F) [RH = 50%]
Pressure (altimeter): 29.73 inches Hg (1007.0 mb)
Winds: from the W (260 degrees) at 5 MPH (4 knots; 2.1 m/s)
Visibility: 6 or more miles (10+ km)
Ceiling: at least 12,000 feet AGL
Clouds: scattered clouds at 1700 feet AGL
scattered clouds at 4000 feet AGL
Weather: no significant weather observed at this time

METAR text: VDPP 220500Z 28005KT 220V330 9999 SCT017 SCT040 33/22 Q1007
Conditions at: VDPP (PHNOM-PENH/POCHE, KH) observed 0500 UTC 22 July 2019
Temperature: 33.0°C (91°F)
Dewpoint: 22.0°C (72°F) [RH = 53%]
Pressure (altimeter): 29.73 inches Hg (1007.0 mb)
Winds: from the W (280 degrees) at 6 MPH (5 knots; 2.6 m/s)
Visibility: 6 or more miles (10+ km)
Ceiling: at least 12,000 feet AGL
Clouds: scattered clouds at 1700 feet AGL
scattered clouds at 4000 feet AGL
Weather: no significant weather observed at this time

METAR text: VDPP 220430Z VRB03KT 9999 SCT017 SCT040 34/22 Q1007
Conditions at: VDPP (PHNOM-PENH/POCHE, KH) observed 0430 UTC 22 July 2019
Temperature: 34.0°C (93°F)
Dewpoint: 22.0°C (72°F) [RH = 50%]
Pressure (altimeter): 29.73 inches Hg (1007.0 mb)
Winds: variable direction winds at 3 MPH (3 knots; 1.5 m/s)
Visibility: 6 or more miles (10+ km)
Ceiling: at least 12,000 feet AGL
Clouds: scattered clouds at 1700 feet AGL
scattered clouds at 4000 feet AGL
Weather: no significant weather observed at this time

METAR text: VDPP 220400Z VRB03KT 9999 SCT017 SCT040 33/22 Q1008
Conditions at: VDPP (PHNOM-PENH/POCHE, KH) observed 0400 UTC 22 July 2019
Temperature: 33.0°C (91°F)
Dewpoint: 22.0°C (72°F) [RH = 53%]
Pressure (altimeter): 29.76 inches Hg (1008.0 mb)
Winds: variable direction winds at 3 MPH (3 knots; 1.5 m/s)
Visibility: 6 or more miles (10+ km)
Ceiling: at least 12,000 feet AGL
Clouds: scattered clouds at 1700 feet AGL
scattered clouds at 4000 feet AGL
Weather: no significant weather observed at this time

METAR text: VDPP 220330Z VRB03KT 9999 SCT017 SCT040 33/21 Q1008
Conditions at: VDPP (PHNOM-PENH/POCHE, KH) observed 0330 UTC 22 July 2019
Temperature: 33.0°C (91°F)
Dewpoint: 21.0°C (70°F) [RH = 49%]
Pressure (altimeter): 29.76 inches Hg (1008.0 mb)
Winds: variable direction winds at 3 MPH (3 knots; 1.5 m/s)
Visibility: 6 or more miles (10+ km)
Ceiling: at least 12,000 feet AGL
Clouds: scattered clouds at 1700 feet AGL
scattered clouds at 4000 feet AGL
Weather: no significant weather observed at this time

METAR text: VDPP 220300Z 30004KT 240V350 9999 SCT017 SCT040 32/23 Q1008
Conditions at: VDPP (PHNOM-PENH/POCHE, KH) observed 0300 UTC 22 July 2019
Temperature: 32.0°C (90°F)
Dewpoint: 23.0°C (73°F) [RH = 59%]
Pressure (altimeter): 29.76 inches Hg (1008.0 mb)
Winds: from the WNW (300 degrees) at 5 MPH (4 knots; 2.1 m/s)
Visibility: 6 or more miles (10+ km)
Ceiling: at least 12,000 feet AGL
Clouds: scattered clouds at 1700 feet AGL
scattered clouds at 4000 feet AGL
Weather: no significant weather observed at this time

METAR text: VDPP 220230Z 31004KT 230V350 9999 SCT017 SCT040 31/23 Q1008
Conditions at: VDPP (PHNOM-PENH/POCHE, KH) observed 0230 UTC 22 July 2019
Temperature: 31.0°C (88°F)
Dewpoint: 23.0°C (73°F) [RH = 63%]
Pressure (altimeter): 29.76 inches Hg (1008.0 mb)
Winds: from the NW (310 degrees) at 5 MPH (4 knots; 2.1 m/s)
Visibility: 6 or more miles (10+ km)
Ceiling: at least 12,000 feet AGL
Clouds: scattered clouds at 1700 feet AGL
scattered clouds at 4000 feet AGL
Weather: no significant weather observed at this time

METAR text: VDPP 220200Z 29004KT 230V350 9999 SCT017 SCT040 30/23 Q1008
Conditions at: VDPP (PHNOM-PENH/POCHE, KH) observed 0200 UTC 22 July 2019
Temperature: 30.0°C (86°F)
Dewpoint: 23.0°C (73°F) [RH = 66%]
Pressure (altimeter): 29.76 inches Hg (1008.0 mb)
Winds: from the WNW (290 degrees) at 5 MPH (4 knots; 2.1 m/s)
Visibility: 6 or more miles (10+ km)
Ceiling: at least 12,000 feet AGL
Clouds: scattered clouds at 1700 feet AGL
scattered clouds at 4000 feet AGL
Weather: no significant weather observed at this time

METAR text: VDPP 220130Z VRB03KT 9999 SCT017 SCT040 30/24 Q1008
Conditions at: VDPP (PHNOM-PENH/POCHE, KH) observed 0130 UTC 22 July 2019
Temperature: 30.0°C (86°F)
Dewpoint: 24.0°C (75°F) [RH = 70%]
Pressure (altimeter): 29.76 inches Hg (1008.0 mb)
Winds: variable direction winds at 3 MPH (3 knots; 1.5 m/s)
Visibility: 6 or more miles (10+ km)
Ceiling: at least 12,000 feet AGL
Clouds: scattered clouds at 1700 feet AGL
scattered clouds at 4000 feet AGL
Weather: no significant weather observed at this time

METAR text: VDPP 220100Z 25004KT 200V300 9999 SCT017 SCT040 30/23 Q1007
Conditions at: VDPP (PHNOM-PENH/POCHE, KH) observed 0100 UTC 22 July 2019
Temperature: 30.0°C (86°F)
Dewpoint: 23.0°C (73°F) [RH = 66%]
Pressure (altimeter): 29.73 inches Hg (1007.0 mb)
Winds: from the WSW (250 degrees) at 5 MPH (4 knots; 2.1 m/s)
Visibility: 6 or more miles (10+ km)
Ceiling: at least 12,000 feet AGL
Clouds: scattered clouds at 1700 feet AGL
scattered clouds at 4000 feet AGL
Weather: no significant weather observed at this time

METAR text: VDPP 220030Z 25004KT 190V290 9999 SCT017 SCT040 29/23 Q1007
Conditions at: VDPP (PHNOM-PENH/POCHE, KH) observed 0030 UTC 22 July 2019
Temperature: 29.0°C (84°F)
Dewpoint: 23.0°C (73°F) [RH = 70%]
Pressure (altimeter): 29.73 inches Hg (1007.0 mb)
Winds: from the WSW (250 degrees) at 5 MPH (4 knots; 2.1 m/s)
Visibility: 6 or more miles (10+ km)
Ceiling: at least 12,000 feet AGL
Clouds: scattered clouds at 1700 feet AGL
scattered clouds at 4000 feet AGL
Weather: no significant weather observed at this time

METAR text: VDPP 220000Z 24005KT 9999 SCT017 SCT040 29/23 Q1007
Conditions at: VDPP (PHNOM-PENH/POCHE, KH) observed 0000 UTC 22 July 2019
Temperature: 29.0°C (84°F)
Dewpoint: 23.0°C (73°F) [RH = 70%]
Pressure (altimeter): 29.73 inches Hg (1007.0 mb)
Winds: from the WSW (240 degrees) at 6 MPH (5 knots; 2.6 m/s)
Visibility: 6 or more miles (10+ km)
Ceiling: at least 12,000 feet AGL
Clouds: scattered clouds at 1700 feet AGL
scattered clouds at 4000 feet AGL
Weather: no significant weather observed at this time

METAR text: VDPP 212330Z 25004KT 220V280 9000 SCT017 SCT040 28/23 Q1007
Conditions at: VDPP (PHNOM-PENH/POCHE, KH) observed 2330 UTC 21 July 2019
Temperature: 28.0°C (82°F)
Dewpoint: 23.0°C (73°F) [RH = 74%]
Pressure (altimeter): 29.73 inches Hg (1007.0 mb)
Winds: from the WSW (250 degrees) at 5 MPH (4 knots; 2.1 m/s)
Visibility: 6 miles ( 9 km)
Ceiling: at least 12,000 feet AGL
Clouds: scattered clouds at 1700 feet AGL
scattered clouds at 4000 feet AGL
Weather: no significant weather observed at this time

METAR text: VDPP 212300Z 26003KT 9000 SCT017 SCT040 28/23 Q1007
Conditions at: VDPP (PHNOM-PENH/POCHE, KH) observed 2300 UTC 21 July 2019
Temperature: 28.0°C (82°F)
Dewpoint: 23.0°C (73°F) [RH = 74%]
Pressure (altimeter): 29.73 inches Hg (1007.0 mb)
Winds: from the W (260 degrees) at 3 MPH (3 knots; 1.5 m/s)
Visibility: 6 miles ( 9 km)
Ceiling: at least 12,000 feet AGL
Clouds: scattered clouds at 1700 feet AGL
scattered clouds at 4000 feet AGL
Weather: no significant weather observed at this time

METAR text: VDPP 212230Z VRB02KT 9000 SCT017 28/23 Q1007
Conditions at: VDPP (PHNOM-PENH/POCHE, KH) observed 2230 UTC 21 July 2019
Temperature: 28.0°C (82°F)
Dewpoint: 23.0°C (73°F) [RH = 74%]
Pressure (altimeter): 29.73 inches Hg (1007.0 mb)
Winds: variable direction winds at 2 MPH (2 knots; 1.0 m/s)
Visibility: 6 miles ( 9 km)
Ceiling: at least 12,000 feet AGL
Clouds: scattered clouds at 1700 feet AGL
Weather: no significant weather observed at this time

METAR text: VDPP 212200Z VRB02KT 9000 SCT017 28/23 Q1007
Conditions at: VDPP (PHNOM-PENH/POCHE, KH) observed 2200 UTC 21 July 2019
Temperature: 28.0°C (82°F)
Dewpoint: 23.0°C (73°F) [RH = 74%]
Pressure (altimeter): 29.73 inches Hg (1007.0 mb)
Winds: variable direction winds at 2 MPH (2 knots; 1.0 m/s)
Visibility: 6 miles ( 9 km)
Ceiling: at least 12,000 feet AGL
Clouds: scattered clouds at 1700 feet AGL
Weather: no significant weather observed at this time

METAR text: VDPP 212130Z VRB02KT 9000 SCT017 28/23 Q1007
Conditions at: VDPP (PHNOM-PENH/POCHE, KH) observed 2130 UTC 21 July 2019
Temperature: 28.0°C (82°F)
Dewpoint: 23.0°C (73°F) [RH = 74%]
Pressure (altimeter): 29.73 inches Hg (1007.0 mb)
Winds: variable direction winds at 2 MPH (2 knots; 1.0 m/s)
Visibility: 6 miles ( 9 km)
Ceiling: at least 12,000 feet AGL
Clouds: scattered clouds at 1700 feet AGL
Weather: no significant weather observed at this time

METAR text: VDPP 212100Z 24004KT 9000 SCT015 SCT040 28/23 Q1007
Conditions at: VDPP (PHNOM-PENH/POCHE, KH) observed 2100 UTC 21 July 2019
Temperature: 28.0°C (82°F)
Dewpoint: 23.0°C (73°F) [RH = 74%]
Pressure (altimeter): 29.73 inches Hg (1007.0 mb)
Winds: from the WSW (240 degrees) at 5 MPH (4 knots; 2.1 m/s)
Visibility: 6 miles ( 9 km)
Ceiling: at least 12,000 feet AGL
Clouds: scattered clouds at 1500 feet AGL
scattered clouds at 4000 feet AGL
Weather: no significant weather observed at this time

Forecast for: VDPP (PHNOM-PENH/POCHE, KH)
Text: TAF VDPP 230500Z 2306/2324 23009KT 9999 SCT017 SCT040
Forecast period: 0600 UTC 23 July 2019 to 0000 UTC 24 July 2019
Forecast type: FROM: standard forecast or significant change
Winds: from the SW (230 degrees) at 10 MPH (9 knots; 4.6 m/s)
Visibility: 6 or more miles 10+ km)
Ceiling: at least 12,000 feet AGL
Clouds: scattered clouds at 1700 feet AGL
scattered clouds at 4000 feet AGL
Weather: no significant weather forecast for this period
Text: TEMPO 2307/2312 5000 TSRA SCT015 FEW017CB SCT040
Forecast period: 0700 to 1200 UTC 23 July 2019
Forecast type: TEMPORARY: The following changes expected for less than half the time period
Visibility: 3 miles (5 km)
Ceiling: at least 12,000 feet AGL
Clouds: scattered clouds at 1500 feet AGL
few clouds at 1700 feet AGL
scattered clouds at 4000 feet AGL
Weather: TSRA  (rain associated with thunderstorm(s))